createdAt,value
2018-12-04T00:01:38.622Z,54.20
2018-12-04T00:04:07.853Z,54.20
2018-12-04T00:06:37.039Z,54.20
2018-12-04T00:09:07.960Z,54.20
2018-12-04T00:11:37.189Z,54.20
2018-12-04T00:14:06.403Z,54.10
2018-12-04T00:16:35.650Z,54.20
2018-12-04T00:19:04.812Z,54.20
2018-12-04T00:21:34.078Z,54.10
2018-12-04T00:24:03.248Z,54.00
2018-12-04T00:26:32.445Z,54.10
2018-12-04T00:29:01.767Z,53.90
2018-12-04T00:31:30.980Z,53.90
2018-12-04T00:34:00.175Z,53.80
2018-12-04T00:36:29.403Z,53.80
2018-12-04T00:38:58.601Z,53.80
2018-12-04T00:41:27.908Z,54.40
2018-12-04T00:43:57.098Z,53.80
2018-12-04T00:46:26.283Z,53.70
2018-12-04T00:48:55.498Z,53.70
2018-12-04T00:51:24.699Z,53.60
2018-12-04T00:53:53.892Z,53.60
2018-12-04T00:56:23.127Z,54.20
2018-12-04T00:58:52.391Z,54.20
2018-12-04T01:01:21.654Z,53.60
2018-12-04T01:03:50.822Z,53.60
2018-12-04T01:06:20.052Z,53.60
2018-12-04T01:08:49.318Z,53.60
2018-12-04T01:11:18.501Z,53.60
2018-12-04T01:13:47.707Z,53.60
2018-12-04T01:16:16.952Z,53.60
2018-12-04T01:18:46.186Z,53.50
2018-12-04T01:21:15.375Z,53.50
2018-12-04T01:23:44.564Z,54.00
2018-12-04T01:26:13.761Z,53.60
2018-12-04T01:28:43.015Z,53.60
2018-12-04T01:31:12.227Z,53.50
2018-12-04T01:33:41.455Z,53.50
2018-12-04T01:36:10.692Z,53.60
2018-12-04T01:38:40.003Z,53.50
2018-12-04T01:41:09.204Z,53.50
2018-12-04T01:43:38.403Z,54.10
2018-12-04T01:46:07.638Z,53.50
2018-12-04T01:48:36.901Z,53.60
2018-12-04T01:51:06.098Z,53.50
2018-12-04T01:53:35.295Z,53.50
2018-12-04T01:56:04.511Z,53.40
2018-12-04T01:58:33.754Z,53.50
2018-12-04T02:01:02.939Z,53.50
2018-12-04T02:03:32.189Z,53.50
2018-12-04T02:06:01.419Z,53.40
2018-12-04T02:08:31.670Z,53.40
2018-12-04T02:11:00.874Z,53.50
2018-12-04T02:13:30.090Z,53.50
2018-12-04T02:15:59.310Z,54.10
2018-12-04T02:18:28.909Z,53.50
2018-12-04T02:20:58.132Z,53.40
2018-12-04T02:23:27.331Z,53.40
2018-12-04T02:25:56.541Z,53.40
2018-12-04T02:28:30.003Z,53.40
2018-12-04T02:30:59.270Z,53.40
2018-12-04T02:33:28.469Z,53.40
2018-12-04T02:35:57.791Z,53.00
2018-12-04T02:38:27.238Z,53.40
2018-12-04T02:40:56.561Z,53.40
2018-12-04T02:43:25.767Z,53.40
2018-12-04T02:45:54.968Z,53.40
2018-12-04T02:48:24.240Z,53.40
2018-12-04T02:50:53.451Z,53.40
2018-12-04T02:53:22.675Z,53.40
2018-12-04T02:55:51.975Z,53.40
2018-12-04T02:58:21.168Z,53.40
2018-12-04T03:00:50.460Z,53.40
2018-12-04T03:03:19.670Z,53.70
2018-12-04T03:05:48.855Z,53.40
2018-12-04T03:08:18.200Z,53.40
2018-12-04T03:10:47.566Z,53.30
2018-12-04T03:13:16.766Z,53.30
2018-12-04T03:15:45.959Z,53.30
2018-12-04T03:18:15.154Z,53.40
2018-12-04T03:20:44.356Z,53.40
2018-12-04T03:23:13.895Z,53.50
2018-12-04T03:25:43.115Z,53.40
2018-12-04T03:28:12.360Z,53.40
2018-12-04T03:30:41.524Z,53.40
2018-12-04T03:33:10.712Z,53.40
2018-12-04T03:35:39.888Z,53.40
2018-12-04T03:38:09.156Z,53.30
2018-12-04T03:40:38.389Z,53.40
2018-12-04T03:43:07.685Z,54.00
2018-12-04T03:45:36.884Z,53.40
2018-12-04T03:48:06.043Z,53.40
2018-12-04T03:50:35.438Z,53.40
2018-12-04T03:53:04.608Z,53.50
2018-12-04T03:55:34.436Z,53.50
2018-12-04T03:58:03.864Z,53.50
2018-12-04T04:00:33.059Z,53.50
2018-12-04T04:03:02.272Z,53.40
2018-12-04T04:05:31.514Z,53.50
2018-12-04T04:08:00.867Z,53.50
2018-12-04T04:10:30.051Z,53.40
2018-12-04T04:12:59.223Z,53.50
2018-12-04T04:15:28.622Z,53.50
2018-12-04T04:17:57.851Z,53.50
2018-12-04T04:20:27.039Z,53.40
2018-12-04T04:22:56.220Z,53.50
2018-12-04T04:25:25.436Z,53.40
2018-12-04T04:27:54.685Z,53.50
2018-12-04T04:30:23.844Z,53.50
2018-12-04T04:32:53.037Z,53.50
2018-12-04T04:35:22.246Z,53.50
2018-12-04T04:37:51.597Z,53.50
2018-12-04T04:40:20.817Z,53.50
2018-12-04T04:42:50.041Z,53.40
2018-12-04T04:45:19.243Z,53.50
2018-12-04T04:47:48.515Z,53.40
2018-12-04T04:50:17.727Z,53.40
2018-12-04T04:52:46.920Z,53.40
2018-12-04T04:55:16.107Z,53.50
2018-12-04T04:57:45.351Z,53.40
2018-12-04T05:00:14.618Z,53.60
2018-12-04T05:02:43.846Z,53.50
2018-12-04T05:05:13.097Z,53.50
2018-12-04T05:07:43.973Z,53.50
2018-12-04T05:10:13.162Z,53.50
2018-12-04T05:12:42.487Z,53.70
2018-12-04T05:15:11.883Z,54.00
2018-12-04T05:17:41.244Z,54.30
2018-12-04T05:20:12.300Z,54.70
2018-12-04T05:22:44.619Z,54.40
2018-12-04T05:25:15.495Z,54.50
2018-12-04T05:27:44.727Z,54.50
2018-12-04T05:30:14.256Z,54.50
2018-12-04T05:32:43.480Z,54.60
2018-12-04T05:35:12.765Z,54.30
2018-12-04T05:37:44.580Z,54.30
2018-12-04T05:43:04.046Z,54.50
2018-12-04T05:45:33.342Z,54.30
2018-12-04T05:48:02.612Z,54.30
2018-12-04T05:50:31.912Z,54.30
2018-12-04T05:53:12.112Z,54.90
2018-12-04T05:55:41.300Z,55.00
2018-12-04T05:58:10.520Z,55.00
2018-12-04T06:00:39.708Z,55.00
2018-12-04T06:03:09.010Z,54.90
2018-12-04T06:05:38.219Z,55.00
2018-12-04T06:08:07.411Z,55.00
2018-12-04T06:10:36.632Z,55.00
2018-12-04T06:13:05.959Z,55.00
2018-12-04T06:15:35.198Z,55.00
2018-12-04T06:18:04.472Z,55.00
2018-12-04T06:20:33.771Z,54.90
2018-12-04T06:23:03.011Z,55.00
2018-12-04T06:25:32.199Z,55.00
2018-12-04T06:28:01.447Z,55.10
2018-12-04T06:30:30.653Z,55.10
2018-12-04T06:32:59.888Z,54.90
2018-12-04T06:35:29.143Z,54.90
2018-12-04T06:37:58.471Z,55.00
2018-12-04T06:40:27.707Z,54.90
2018-12-04T06:42:57.262Z,55.00
2018-12-04T06:45:26.810Z,55.00
2018-12-04T06:47:56.107Z,54.90
2018-12-04T06:50:25.610Z,54.90
2018-12-04T06:52:54.831Z,54.80
2018-12-04T06:55:24.046Z,54.90
2018-12-04T06:57:58.738Z,55.50
2018-12-04T07:00:27.915Z,54.90
2018-12-04T07:02:57.255Z,54.80
2018-12-04T07:05:26.608Z,54.70
2018-12-04T07:07:55.839Z,54.80
2018-12-04T07:10:25.241Z,54.80
2018-12-04T07:12:54.595Z,54.70
2018-12-04T07:15:24.127Z,54.70
2018-12-04T07:17:53.530Z,54.70
2018-12-04T07:20:22.754Z,54.70
2018-12-04T07:22:51.955Z,54.80
2018-12-04T07:25:21.170Z,54.70
2018-12-04T07:27:50.502Z,54.70
2018-12-04T07:30:19.750Z,54.80
2018-12-04T07:32:49.051Z,54.70
2018-12-04T07:35:18.268Z,55.30
2018-12-04T07:37:47.616Z,54.70
2018-12-04T07:40:16.894Z,54.80
2018-12-04T07:42:46.056Z,54.70
2018-12-04T07:45:15.327Z,54.70
2018-12-04T07:47:44.559Z,54.70
2018-12-04T07:50:13.819Z,54.70
2018-12-04T07:52:43.053Z,54.80
2018-12-04T07:55:12.291Z,54.60
2018-12-04T07:57:41.612Z,55.40
2018-12-04T08:00:10.830Z,54.60
2018-12-04T08:02:40.048Z,54.80
2018-12-04T08:05:09.249Z,54.70
2018-12-04T08:07:38.502Z,54.70
2018-12-04T08:10:08.315Z,55.20
2018-12-04T08:12:37.515Z,54.60
2018-12-04T08:15:07.480Z,54.70
2018-12-04T08:17:36.729Z,54.50
2018-12-04T08:20:07.140Z,54.70
2018-12-04T08:22:36.670Z,54.60
2018-12-04T08:25:06.094Z,54.50
2018-12-04T08:27:37.548Z,54.60
2018-12-04T08:30:08.553Z,54.60
2018-12-04T08:32:37.734Z,54.60
2018-12-04T08:35:09.270Z,54.60
2018-12-04T08:37:38.590Z,54.60
2018-12-04T08:40:08.963Z,54.50
2018-12-04T08:42:38.573Z,54.60
2018-12-04T08:45:09.017Z,54.50
2018-12-04T08:47:38.328Z,54.50
2018-12-04T08:50:08.214Z,54.60
2018-12-04T08:52:37.550Z,54.60
2018-12-04T08:55:07.176Z,54.50
2018-12-04T08:57:36.525Z,54.50
2018-12-04T09:00:06.585Z,54.60
2018-12-04T09:02:35.869Z,54.50
2018-12-04T09:05:05.450Z,54.60
2018-12-04T09:07:34.783Z,54.50
2018-12-04T09:10:04.277Z,54.50
2018-12-04T09:12:33.483Z,54.50
2018-12-04T09:15:02.750Z,54.50
2018-12-04T09:17:32.035Z,54.50
2018-12-04T09:20:01.366Z,54.50
2018-12-04T09:22:30.637Z,54.50
2018-12-04T09:25:00.025Z,54.60
2018-12-04T09:27:29.449Z,54.50
2018-12-04T09:29:58.831Z,54.60
2018-12-04T09:32:28.039Z,54.50
2018-12-04T09:34:57.221Z,54.30
2018-12-04T09:37:26.505Z,54.40
2018-12-04T09:39:55.770Z,54.50
2018-12-04T09:42:24.941Z,54.40
2018-12-04T09:44:54.146Z,54.30
2018-12-04T09:47:23.423Z,54.30
2018-12-04T09:49:52.684Z,54.20
2018-12-04T09:52:21.885Z,54.00
2018-12-04T09:54:51.115Z,53.80
2018-12-04T09:57:20.620Z,53.70
2018-12-04T09:59:49.855Z,53.70
2018-12-04T10:02:19.207Z,53.60
2018-12-04T10:04:48.486Z,53.60
2018-12-04T10:07:17.670Z,53.60
2018-12-04T10:09:46.928Z,53.60
2018-12-04T10:12:16.094Z,53.60
2018-12-04T10:14:45.310Z,53.50
2018-12-04T10:17:14.618Z,53.50
2018-12-04T10:19:43.808Z,53.50
2018-12-04T10:22:12.994Z,53.50
2018-12-04T10:24:42.393Z,53.40
2018-12-04T10:27:11.664Z,53.40
2018-12-04T10:29:40.930Z,53.40
2018-12-04T10:32:10.139Z,53.40
2018-12-04T10:34:39.327Z,53.30
2018-12-04T10:37:08.606Z,53.30
2018-12-04T10:39:37.812Z,53.40
2018-12-04T10:42:07.055Z,53.40
2018-12-04T10:44:36.259Z,53.40
2018-12-04T10:47:05.552Z,53.40
2018-12-04T10:49:34.740Z,53.40
2018-12-04T10:52:04.001Z,54.10
2018-12-04T10:54:33.226Z,53.40
2018-12-04T10:57:02.588Z,53.50
2018-12-04T10:59:31.815Z,53.50
2018-12-04T11:02:07.051Z,53.50
2018-12-04T11:04:36.277Z,54.10
2018-12-04T11:07:05.471Z,53.60
2018-12-04T11:09:34.699Z,53.70
2018-12-04T11:12:04.206Z,53.60
2018-12-04T11:14:33.391Z,53.70
2018-12-04T11:17:02.586Z,53.70
2018-12-04T11:19:31.839Z,53.60
2018-12-04T11:22:01.063Z,53.20
2018-12-04T11:24:30.343Z,53.80
2018-12-04T11:26:59.671Z,53.80
2018-12-04T11:29:28.938Z,53.80
2018-12-04T11:31:58.371Z,53.80
2018-12-04T11:34:27.745Z,53.90
2018-12-04T11:36:56.982Z,53.90
2018-12-04T11:39:26.233Z,53.90
2018-12-04T11:41:57.657Z,53.90
2018-12-04T11:44:26.898Z,53.90
2018-12-04T11:46:56.128Z,53.90
2018-12-04T11:49:25.340Z,53.90
2018-12-04T11:51:54.542Z,53.90
2018-12-04T11:54:23.782Z,53.90
2018-12-04T11:56:53.061Z,54.00
2018-12-04T11:59:22.319Z,54.00
2018-12-04T12:01:51.537Z,54.00
2018-12-04T12:04:20.913Z,54.00
2018-12-04T12:06:50.149Z,54.00
2018-12-04T12:09:19.419Z,54.30
2018-12-04T12:11:48.739Z,54.10
2018-12-04T12:14:17.946Z,54.00
2018-12-04T12:16:47.140Z,54.00
2018-12-04T12:19:16.393Z,54.20
2018-12-04T12:21:45.630Z,54.20
2018-12-04T12:24:14.855Z,54.10
2018-12-04T12:26:44.074Z,54.10
2018-12-04T12:29:13.914Z,54.10
2018-12-04T12:31:43.127Z,54.10
2018-12-04T12:34:12.383Z,54.20
2018-12-04T12:36:42.011Z,54.20
2018-12-04T12:39:11.208Z,54.20
2018-12-04T12:41:40.399Z,54.10
2018-12-04T12:44:09.691Z,54.00
2018-12-04T12:46:38.990Z,54.00
2018-12-04T12:49:08.271Z,54.50
2018-12-04T12:51:37.482Z,54.50
2018-12-04T12:54:06.725Z,54.30
2018-12-04T12:56:35.942Z,54.30
2018-12-04T12:59:05.281Z,54.30
2018-12-04T13:01:34.594Z,54.30
2018-12-04T13:04:03.763Z,54.30
2018-12-04T13:06:32.994Z,54.30
2018-12-04T13:09:02.395Z,54.30
2018-12-04T13:11:31.616Z,54.60
2018-12-04T13:14:00.829Z,54.90
2018-12-04T13:16:30.131Z,54.80
2018-12-04T13:18:59.503Z,54.60
2018-12-04T13:21:28.742Z,54.70
2018-12-04T13:23:58.103Z,54.50
2018-12-04T13:26:27.421Z,54.60
2018-12-04T13:28:56.734Z,54.70
2018-12-04T13:31:26.002Z,54.70
2018-12-04T13:33:55.258Z,54.70
2018-12-04T13:36:24.494Z,54.60
2018-12-04T13:38:53.794Z,54.60
2018-12-04T13:41:23.083Z,54.50
2018-12-04T13:43:52.402Z,54.40
2018-12-04T13:46:21.636Z,54.40
2018-12-04T13:48:50.882Z,54.50
2018-12-04T13:51:20.194Z,54.50
2018-12-04T13:53:49.410Z,54.40
2018-12-04T13:56:18.647Z,54.50
2018-12-04T13:58:48.998Z,54.50
2018-12-04T14:01:18.955Z,54.50
2018-12-04T14:03:48.155Z,54.50
2018-12-04T14:06:17.432Z,54.50
2018-12-04T14:08:46.718Z,54.50
2018-12-04T14:11:15.972Z,54.50
2018-12-04T14:13:45.292Z,54.50
2018-12-04T14:16:14.666Z,54.60
2018-12-04T14:18:43.932Z,54.50
2018-12-04T14:21:13.223Z,55.20
2018-12-04T14:23:42.504Z,54.60
2018-12-04T14:26:11.742Z,54.50
2018-12-04T14:28:41.035Z,54.50
2018-12-04T14:31:10.381Z,54.50
2018-12-04T14:33:39.643Z,54.50
2018-12-04T14:36:08.851Z,54.50
2018-12-04T14:38:38.149Z,54.40
2018-12-04T14:41:07.329Z,54.40
2018-12-04T14:43:36.787Z,54.50
2018-12-04T14:46:06.263Z,54.50
2018-12-04T14:48:35.616Z,54.40
2018-12-04T14:51:04.907Z,54.60
2018-12-04T14:53:34.231Z,54.50
2018-12-04T14:56:04.014Z,54.50
2018-12-04T14:58:33.430Z,54.60
2018-12-04T15:01:02.666Z,54.60
2018-12-04T15:03:31.989Z,54.60
2018-12-04T15:06:01.211Z,54.60
2018-12-04T15:08:30.508Z,54.60
2018-12-04T15:10:59.820Z,54.60
2018-12-04T15:13:29.025Z,54.60
2018-12-04T15:15:58.337Z,54.60
2018-12-04T15:18:27.695Z,54.70
2018-12-04T15:20:57.027Z,54.70
2018-12-04T15:23:26.279Z,54.60
2018-12-04T15:25:55.556Z,54.50
2018-12-04T15:28:24.890Z,54.60
2018-12-04T15:30:54.137Z,54.60
2018-12-04T15:33:23.530Z,54.60
2018-12-04T15:35:52.745Z,54.70
2018-12-04T15:38:22.090Z,54.60
2018-12-04T15:40:51.387Z,54.50
2018-12-04T15:43:21.148Z,54.60
2018-12-04T15:45:50.447Z,54.60
2018-12-04T15:48:19.951Z,54.60
2018-12-04T15:50:49.281Z,54.60
2018-12-04T15:53:19.278Z,54.50
2018-12-04T15:55:48.628Z,54.50
2018-12-04T15:58:17.895Z,54.80
2018-12-04T16:00:47.141Z,54.50
2018-12-04T16:03:16.492Z,54.40
2018-12-04T16:05:45.788Z,54.40
2018-12-04T16:08:15.099Z,54.90
2018-12-04T16:10:44.306Z,54.40
2018-12-04T16:13:13.513Z,54.30
2018-12-04T16:15:42.716Z,54.30
2018-12-04T16:18:11.990Z,54.30
2018-12-04T16:20:41.228Z,54.30
2018-12-04T16:23:10.530Z,54.30
2018-12-04T16:25:39.695Z,54.30
2018-12-04T16:28:08.902Z,54.30
2018-12-04T16:30:38.134Z,54.30
2018-12-04T16:33:07.420Z,54.20
2018-12-04T16:35:36.651Z,54.40
2018-12-04T16:38:05.987Z,54.20
2018-12-04T16:40:35.237Z,54.30
2018-12-04T16:43:04.503Z,54.40
2018-12-04T16:45:33.719Z,54.40
2018-12-04T16:48:02.972Z,54.40
2018-12-04T16:50:32.214Z,54.50
2018-12-04T16:53:01.422Z,54.40
2018-12-04T16:55:30.679Z,54.80
2018-12-04T16:57:59.943Z,54.60
2018-12-04T17:00:29.211Z,54.70
2018-12-04T17:02:58.382Z,54.70
2018-12-04T17:05:27.611Z,54.80
2018-12-04T17:07:56.801Z,54.80
2018-12-04T17:10:26.030Z,55.00
2018-12-04T17:12:55.268Z,54.80
2018-12-04T17:15:24.482Z,54.70
2018-12-04T17:17:53.943Z,54.90
2018-12-04T17:20:23.446Z,54.90
2018-12-04T17:22:52.639Z,55.00
2018-12-04T17:25:21.871Z,55.00
2018-12-04T17:27:51.200Z,55.00
2018-12-04T17:30:20.764Z,55.00
2018-12-04T17:32:50.354Z,55.00
2018-12-04T17:35:19.587Z,55.00
2018-12-04T17:37:48.877Z,55.10
2018-12-04T17:40:18.119Z,55.10
2018-12-04T17:42:47.318Z,55.50
2018-12-04T17:45:16.534Z,56.60
2018-12-04T17:47:45.837Z,56.50
2018-12-04T17:50:15.026Z,56.60
2018-12-04T17:52:44.725Z,57.00
2018-12-04T17:55:13.909Z,57.10
2018-12-04T17:57:43.191Z,57.60
2018-12-04T18:00:14.765Z,57.70
2018-12-04T18:02:47.630Z,56.30
2018-12-04T18:05:16.947Z,55.60
2018-12-04T18:07:46.215Z,55.50
2018-12-04T18:10:15.464Z,55.70
2018-12-04T18:12:44.626Z,55.40
2018-12-04T18:15:13.855Z,55.80
2018-12-04T18:17:43.325Z,55.50
2018-12-04T18:20:13.480Z,55.60
2018-12-04T18:22:42.739Z,55.80
2018-12-04T18:25:12.268Z,57.10
2018-12-04T18:27:41.484Z,57.20
2018-12-04T18:30:10.690Z,57.20
2018-12-04T18:32:40.002Z,56.80
2018-12-04T18:35:09.214Z,57.20
2018-12-04T18:37:38.548Z,56.90
2018-12-04T18:40:07.795Z,56.50
2018-12-04T18:42:37.075Z,56.60
2018-12-04T18:45:07.869Z,56.50
2018-12-04T18:47:37.174Z,56.40
2018-12-04T18:50:08.676Z,56.20
2018-12-04T18:52:37.920Z,56.10
2018-12-04T18:55:07.457Z,56.20
2018-12-04T18:57:36.794Z,55.90
2018-12-04T19:00:07.303Z,55.70
2018-12-04T19:02:36.571Z,55.60
2018-12-04T19:05:05.868Z,56.00
2018-12-04T19:07:35.187Z,55.40
2018-12-04T19:10:04.471Z,55.30
2018-12-04T19:12:33.698Z,55.20
2018-12-04T19:15:02.958Z,55.20
2018-12-04T19:17:32.292Z,55.80
2018-12-04T19:20:01.573Z,55.10
2018-12-04T19:22:30.800Z,55.10
2018-12-04T19:24:59.989Z,55.10
2018-12-04T19:27:29.266Z,55.10
2018-12-04T19:29:58.507Z,55.10
2018-12-04T19:32:27.703Z,55.20
2018-12-04T19:34:56.962Z,55.40
2018-12-04T19:37:26.362Z,55.90
2018-12-04T19:39:55.588Z,55.50
2018-12-04T19:42:24.802Z,55.50
2018-12-04T19:44:53.984Z,55.50
2018-12-04T19:47:23.278Z,55.60
2018-12-04T19:49:52.500Z,55.60
2018-12-04T19:52:21.711Z,55.60
2018-12-04T19:54:50.987Z,55.60
2018-12-04T19:57:20.157Z,55.50
2018-12-04T19:59:49.355Z,55.40
2018-12-04T20:02:18.582Z,55.40
2018-12-04T20:04:47.844Z,55.40
2018-12-04T20:07:17.138Z,55.30
2018-12-04T20:09:46.367Z,55.30
2018-12-04T20:12:15.546Z,55.30
2018-12-04T20:14:44.752Z,55.30
2018-12-04T20:17:14.023Z,55.30
2018-12-04T20:19:43.239Z,55.30
2018-12-04T20:22:12.442Z,55.20
2018-12-04T20:24:41.627Z,55.20
2018-12-04T20:27:10.926Z,55.10
2018-12-04T20:29:40.362Z,55.20
2018-12-04T20:32:09.559Z,55.10
2018-12-04T20:34:38.938Z,54.80
2018-12-04T20:37:08.166Z,54.70
2018-12-04T20:39:37.338Z,54.60
2018-12-04T20:42:08.380Z,54.60
2018-12-04T20:44:37.712Z,54.60
2018-12-04T20:47:06.903Z,54.60
2018-12-04T20:49:36.141Z,54.60
2018-12-04T20:52:05.346Z,54.60
2018-12-04T20:54:34.538Z,54.80
2018-12-04T20:57:03.799Z,54.90
2018-12-04T20:59:32.959Z,55.60
2018-12-04T21:02:02.223Z,55.00
2018-12-04T21:04:31.391Z,55.00
2018-12-04T21:07:00.599Z,55.00
2018-12-04T21:09:29.923Z,55.10
2018-12-04T21:11:59.091Z,55.00
2018-12-04T21:14:28.248Z,54.90
2018-12-04T21:16:57.495Z,54.90
2018-12-04T21:19:26.655Z,54.80
2018-12-04T21:21:55.822Z,55.40
2018-12-04T21:24:24.976Z,54.80
2018-12-04T21:26:54.195Z,55.00
2018-12-04T21:29:28.501Z,54.90
2018-12-04T21:32:02.827Z,55.00
2018-12-04T21:34:36.924Z,55.00
2018-12-04T21:37:11.247Z,54.90
2018-12-04T21:39:42.526Z,54.90
2018-12-04T21:42:16.816Z,54.90
2018-12-04T21:44:51.167Z,54.90
2018-12-04T21:47:25.712Z,54.90
2018-12-04T21:49:54.860Z,54.80
2018-12-04T21:52:24.050Z,54.70
2018-12-04T21:54:53.202Z,54.60
2018-12-04T21:57:22.378Z,54.60
2018-12-04T21:59:51.525Z,54.40
2018-12-04T22:02:20.703Z,54.40
2018-12-04T22:04:50.009Z,54.20
2018-12-04T22:07:19.307Z,54.20
2018-12-04T22:09:48.532Z,54.20
2018-12-04T22:12:17.794Z,54.10
2018-12-04T22:14:47.654Z,54.50
2018-12-04T22:17:16.951Z,54.00
2018-12-04T22:19:46.153Z,54.00
2018-12-04T22:22:15.354Z,53.90
2018-12-04T22:24:44.534Z,53.90
2018-12-04T22:27:13.735Z,53.90
2018-12-04T22:29:42.926Z,53.80
2018-12-04T22:32:12.123Z,53.80
2018-12-04T22:34:41.295Z,53.80
2018-12-04T22:37:10.533Z,53.80
2018-12-04T22:39:39.871Z,53.70
2018-12-04T22:42:09.023Z,53.80
2018-12-04T22:44:38.196Z,53.60
2018-12-04T22:47:07.395Z,53.60
2018-12-04T22:49:36.561Z,53.50
2018-12-04T22:52:05.792Z,53.50
2018-12-04T22:54:34.954Z,53.50
2018-12-04T22:57:04.187Z,53.50
2018-12-04T22:59:33.350Z,53.50
2018-12-04T23:02:02.754Z,53.40
2018-12-04T23:04:31.915Z,53.40
2018-12-04T23:07:01.275Z,53.40
2018-12-04T23:09:30.509Z,53.50
2018-12-04T23:12:00.163Z,53.60
2018-12-04T23:14:29.359Z,53.50
2018-12-04T23:16:58.660Z,53.50
2018-12-04T23:19:27.847Z,53.40
2018-12-04T23:21:57.017Z,53.40
2018-12-04T23:24:26.220Z,53.50
2018-12-04T23:26:55.414Z,53.40
2018-12-04T23:29:24.579Z,53.50
2018-12-04T23:31:53.764Z,53.40
2018-12-04T23:34:22.943Z,53.40
2018-12-04T23:36:52.115Z,53.40
2018-12-04T23:39:22.093Z,53.40
2018-12-04T23:41:51.391Z,53.30
2018-12-04T23:44:22.628Z,53.30
2018-12-04T23:46:51.790Z,53.30
2018-12-04T23:49:20.926Z,53.20
2018-12-04T23:51:50.096Z,53.20
2018-12-04T23:54:19.266Z,53.10
2018-12-04T23:56:48.455Z,53.20
2018-12-04T23:59:17.624Z,53.80
